sensor_id;sensor_type;location;lat;lon;timestamp;pressure;altitude;pressure_sealevel;temperature;humidity
70323;BME280;57735;56.264;43.898;2023-03-14T00:01:31;100925.59;;;-3.77;70.05
70323;BME280;57735;56.264;43.898;2023-03-14T00:04:03;100928.31;;;-3.80;70.17
70323;BME280;57735;56.264;43.898;2023-03-14T00:06:34;100932.75;;;-3.84;70.17
70323;BME280;57735;56.264;43.898;2023-03-14T00:09:05;100935.44;;;-3.85;70.31
70323;BME280;57735;56.264;43.898;2023-03-14T00:11:36;100936.34;;;-3.87;70.14
70323;BME280;57735;56.264;43.898;2023-03-14T00:14:06;100942.53;;;-3.91;69.92
70323;BME280;57735;56.264;43.898;2023-03-14T00:16:37;100945.19;;;-3.92;70.13
70323;BME280;57735;56.264;43.898;2023-03-14T00:19:07;100946.16;;;-3.96;70.08
70323;BME280;57735;56.264;43.898;2023-03-14T00:21:38;100948.06;;;-4.01;70.27
70323;BME280;57735;56.264;43.898;2023-03-14T00:24:09;100947.31;;;-4.05;70.24
70323;BME280;57735;56.264;43.898;2023-03-14T00:26:39;100952.63;;;-4.08;70.39
70323;BME280;57735;56.264;43.898;2023-03-14T00:29:10;100952.66;;;-4.09;70.66
70323;BME280;57735;56.264;43.898;2023-03-14T00:31:40;100946.69;;;-4.13;70.71
70323;BME280;57735;56.264;43.898;2023-03-14T00:34:11;100951.09;;;-4.15;70.66
70323;BME280;57735;56.264;43.898;2023-03-14T00:36:41;100948.56;;;-4.18;70.85
70323;BME280;57735;56.264;43.898;2023-03-14T00:39:12;100948.66;;;-4.19;71.02
70323;BME280;57735;56.264;43.898;2023-03-14T00:41:42;100957.41;;;-4.22;71.29
70323;BME280;57735;56.264;43.898;2023-03-14T00:44:13;100962.59;;;-4.22;71.07
70323;BME280;57735;56.264;43.898;2023-03-14T00:46:43;100967.91;;;-4.25;71.12
70323;BME280;57735;56.264;43.898;2023-03-14T00:49:14;100961.03;;;-4.28;71.10
70323;BME280;57735;56.264;43.898;2023-03-14T00:51:44;100961.94;;;-4.29;71.14
70323;BME280;57735;56.264;43.898;2023-03-14T00:54:15;100974.03;;;-4.28;71.05
70323;BME280;57735;56.264;43.898;2023-03-14T00:56:45;100970.63;;;-4.30;71.04
70323;BME280;57735;56.264;43.898;2023-03-14T00:59:16;100982.81;;;-4.32;71.07
70323;BME280;57735;56.264;43.898;2023-03-14T01:01:50;100979.41;;;-4.34;71.29
70323;BME280;57735;56.264;43.898;2023-03-14T01:04:20;100980.38;;;-4.36;71.23
70323;BME280;57735;56.264;43.898;2023-03-14T01:06:51;100983.88;;;-4.37;71.45
70323;BME280;57735;56.264;43.898;2023-03-14T01:09:21;100988.31;;;-4.41;71.34
70323;BME280;57735;56.264;43.898;2023-03-14T01:11:55;100988.41;;;-4.44;71.53
70323;BME280;57735;56.264;43.898;2023-03-14T01:14:28;100991.94;;;-4.46;71.67
70323;BME280;57735;56.264;43.898;2023-03-14T01:16:58;100985.91;;;-4.48;71.62
70323;BME280;57735;56.264;43.898;2023-03-14T01:19:30;100980.81;;;-4.51;71.86
70323;BME280;57735;56.264;43.898;2023-03-14T01:22:01;100993.91;;;-4.54;72.35
70323;BME280;57735;56.264;43.898;2023-03-14T01:24:32;101000.91;;;-4.57;72.08
70323;BME280;57735;56.264;43.898;2023-03-14T01:27:02;101005.31;;;-4.59;72.14
70323;BME280;57735;56.264;43.898;2023-03-14T01:29:33;100997.56;;;-4.62;72.23
70323;BME280;57735;56.264;43.898;2023-03-14T01:32:03;100998.47;;;-4.63;72.05
70323;BME280;57735;56.264;43.898;2023-03-14T01:34:34;101002.84;;;-4.65;72.65
70323;BME280;57735;56.264;43.898;2023-03-14T01:37:04;101006.34;;;-4.66;72.57
70323;BME280;57735;56.264;43.898;2023-03-14T01:39:35;101021.13;;;-4.68;72.71
70323;BME280;57735;56.264;43.898;2023-03-14T01:42:08;101017.75;;;-4.70;72.61
70323;BME280;57735;56.264;43.898;2023-03-14T01:44:55;101015.16;;;-4.70;72.76
70323;BME280;57735;56.264;43.898;2023-03-14T01:47:26;101018.63;;;-4.69;72.73
70323;BME280;57735;56.264;43.898;2023-03-14T01:50:08;101032.44;;;-4.69;72.68
70323;BME280;57735;56.264;43.898;2023-03-14T01:52:44;101037.56;;;-4.66;73.09
70323;BME280;57735;56.264;43.898;2023-03-14T01:55:17;101034.06;;;-4.65;72.76
70323;BME280;57735;56.264;43.898;2023-03-14T01:57:50;101033.25;;;-4.67;72.67
70323;BME280;57735;56.264;43.898;2023-03-14T02:00:22;101034.97;;;-4.66;72.72
70323;BME280;57735;56.264;43.898;2023-03-14T02:03:00;101042.81;;;-4.67;72.85
70323;BME280;57735;56.264;43.898;2023-03-14T02:05:32;101050.56;;;-4.66;72.92
70323;BME280;57735;56.264;43.898;2023-03-14T02:08:05;101049.59;;;-4.62;72.89
70323;BME280;57735;56.264;43.898;2023-03-14T02:10:41;101057.31;;;-4.59;72.89
70323;BME280;57735;56.264;43.898;2023-03-14T02:13:12;101053.06;;;-4.61;72.84
70323;BME280;57735;56.264;43.898;2023-03-14T02:15:45;101059.97;;;-4.60;72.60
70323;BME280;57735;56.264;43.898;2023-03-14T02:18:16;101065.19;;;-4.62;72.58
70323;BME280;57735;56.264;43.898;2023-03-14T02:20:58;101064.38;;;-4.64;72.79
70323;BME280;57735;56.264;43.898;2023-03-14T02:23:40;101067.88;;;-4.65;73.01
70323;BME280;57735;56.264;43.898;2023-03-14T02:26:34;101067.94;;;-4.68;72.61
70323;BME280;57735;56.264;43.898;2023-03-14T02:29:07;101070.63;;;-4.69;72.48
70323;BME280;57735;56.264;43.898;2023-03-14T02:31:37;101067.16;;;-4.70;72.65
70323;BME280;57735;56.264;43.898;2023-03-14T02:34:08;101065.50;;;-4.72;72.57
70323;BME280;57735;56.264;43.898;2023-03-14T02:36:38;101073.34;;;-4.74;72.72
70323;BME280;57735;56.264;43.898;2023-03-14T02:39:18;101068.22;;;-4.77;72.41
70323;BME280;57735;56.264;43.898;2023-03-14T02:41:53;101070.00;;;-4.79;72.64
70323;BME280;57735;56.264;43.898;2023-03-14T02:44:24;101070.00;;;-4.79;72.95
70323;BME280;57735;56.264;43.898;2023-03-14T02:46:54;101067.41;;;-4.79;72.58
70323;BME280;57735;56.264;43.898;2023-03-14T02:49:25;101071.69;;;-4.78;72.69
70323;BME280;57735;56.264;43.898;2023-03-14T02:51:57;101065.69;;;-4.80;72.76
70323;BME280;57735;56.264;43.898;2023-03-14T02:54:27;101070.06;;;-4.82;72.50
70323;BME280;57735;56.264;43.898;2023-03-14T02:56:58;101061.44;;;-4.84;72.72
70323;BME280;57735;56.264;43.898;2023-03-14T02:59:31;101072.72;;;-4.83;72.73
70323;BME280;57735;56.264;43.898;2023-03-14T03:02:02;101076.25;;;-4.86;72.75
70323;BME280;57735;56.264;43.898;2023-03-14T03:04:32;101082.34;;;-4.87;72.85
70323;BME280;57735;56.264;43.898;2023-03-14T03:07:03;101083.25;;;-4.88;72.47
70323;BME280;57735;56.264;43.898;2023-03-14T03:09:33;101093.72;;;-4.91;72.73
70323;BME280;57735;56.264;43.898;2023-03-14T03:12:04;101085.88;;;-4.89;72.37
70323;BME280;57735;56.264;43.898;2023-03-14T03:14:35;101094.53;;;-4.89;72.77
70323;BME280;57735;56.264;43.898;2023-03-14T03:17:05;101102.38;;;-4.90;72.19
70323;BME280;57735;56.264;43.898;2023-03-14T03:19:36;101098.88;;;-4.89;72.20
70323;BME280;57735;56.264;43.898;2023-03-14T03:22:09;101102.31;;;-4.87;72.38
70323;BME280;57735;56.264;43.898;2023-03-14T03:24:43;101104.91;;;-4.87;72.11
70323;BME280;57735;56.264;43.898;2023-03-14T03:27:14;101098.84;;;-4.88;71.95
70323;BME280;57735;56.264;43.898;2023-03-14T03:29:45;101098.03;;;-4.90;72.05
70323;BME280;57735;56.264;43.898;2023-03-14T03:32:16;101101.50;;;-4.91;71.98
70323;BME280;57735;56.264;43.898;2023-03-14T03:34:46;101090.22;;;-4.90;71.86
70323;BME280;57735;56.264;43.898;2023-03-14T03:37:19;101091.94;;;-4.89;71.80
70323;BME280;57735;56.264;43.898;2023-03-14T03:39:50;101096.22;;;-4.86;71.67
70323;BME280;57735;56.264;43.898;2023-03-14T03:42:24;101095.28;;;-4.85;71.93
70323;BME280;57735;56.264;43.898;2023-03-14T03:44:56;101095.25;;;-4.84;71.54
70323;BME280;57735;56.264;43.898;2023-03-14T03:47:26;101093.34;;;-4.77;71.65
70323;BME280;57735;56.264;43.898;2023-03-14T03:49:57;101093.28;;;-4.74;71.81
70323;BME280;57735;56.264;43.898;2023-03-14T03:52:28;101092.31;;;-4.70;71.33
70323;BME280;57735;56.264;43.898;2023-03-14T03:54:58;101095.63;;;-4.65;71.53
70323;BME280;57735;56.264;43.898;2023-03-14T03:57:29;101089.34;;;-4.57;71.11
70323;BME280;57735;56.264;43.898;2023-03-14T03:59:59;101090.84;;;-4.48;70.95
70323;BME280;57735;56.264;43.898;2023-03-14T04:02:30;101069.81;;;-4.40;70.67
70323;BME280;57735;56.264;43.898;2023-03-14T04:05:00;101063.50;;;-4.32;70.46
70323;BME280;57735;56.264;43.898;2023-03-14T04:07:31;101061.53;;;-4.24;70.32
70323;BME280;57735;56.264;43.898;2023-03-14T04:10:02;101039.69;;;-4.18;70.40
70323;BME280;57735;56.264;43.898;2023-03-14T04:12:33;101041.09;;;-4.06;70.40
70323;BME280;57735;56.264;43.898;2023-03-14T04:15:04;101023.56;;;-4.01;70.07
70323;BME280;57735;56.264;43.898;2023-03-14T04:17:35;101031.19;;;-3.95;70.11
70323;BME280;57735;56.264;43.898;2023-03-14T04:20:05;101030.16;;;-3.90;69.75
70323;BME280;57735;56.264;43.898;2023-03-14T04:22:40;101035.09;;;-3.80;69.85
70323;BME280;57735;56.264;43.898;2023-03-14T04:25:11;101039.13;;;-3.70;69.61
70323;BME280;57735;56.264;43.898;2023-03-14T04:27:41;101038.78;;;-3.60;69.08
70323;BME280;57735;56.264;43.898;2023-03-14T04:30:12;101047.06;;;-3.47;68.87
70323;BME280;57735;56.264;43.898;2023-03-14T04:32:42;101053.00;;;-3.42;68.38
70323;BME280;57735;56.264;43.898;2023-03-14T04:35:13;101063.31;;;-3.39;68.14
70323;BME280;57735;56.264;43.898;2023-03-14T04:37:43;101070.91;;;-3.33;67.69
70323;BME280;57735;56.264;43.898;2023-03-14T04:40:14;101076.25;;;-3.36;67.43
70323;BME280;57735;56.264;43.898;2023-03-14T04:42:45;101081.34;;;-3.33;67.78
70323;BME280;57735;56.264;43.898;2023-03-14T04:45:15;101076.75;;;-3.25;67.97
70323;BME280;57735;56.264;43.898;2023-03-14T04:47:46;101083.19;;;-3.08;67.56
70323;BME280;57735;56.264;43.898;2023-03-14T04:50:17;101080.81;;;-2.90;67.14
70323;BME280;57735;56.264;43.898;2023-03-14T04:52:47;101083.91;;;-2.78;66.75
70323;BME280;57735;56.264;43.898;2023-03-14T04:55:18;101085.19;;;-2.65;66.59
70323;BME280;57735;56.264;43.898;2023-03-14T04:57:48;101076.91;;;-2.52;66.41
70323;BME280;57735;56.264;43.898;2023-03-14T05:00:19;101071.44;;;-2.46;65.91
70323;BME280;57735;56.264;43.898;2023-03-14T05:02:49;101063.63;;;-2.46;65.69
70323;BME280;57735;56.264;43.898;2023-03-14T05:05:22;101057.28;;;-2.38;65.70
70323;BME280;57735;56.264;43.898;2023-03-14T05:07:53;101062.41;;;-2.35;65.06
70323;BME280;57735;56.264;43.898;2023-03-14T05:10:24;101051.81;;;-2.32;64.86
70323;BME280;57735;56.264;43.898;2023-03-14T05:12:55;101061.84;;;-2.20;64.55
70323;BME280;57735;56.264;43.898;2023-03-14T05:15:26;101056.16;;;-2.08;64.12
70323;BME280;57735;56.264;43.898;2023-03-14T05:17:56;101052.38;;;-2.01;63.77
70323;BME280;57735;56.264;43.898;2023-03-14T05:20:27;101058.75;;;-1.85;63.56
70323;BME280;57735;56.264;43.898;2023-03-14T05:22:57;101052.16;;;-1.71;63.29
70323;BME280;57735;56.264;43.898;2023-03-14T05:25:30;101053.38;;;-1.58;62.29
70323;BME280;57735;56.264;43.898;2023-03-14T05:28:00;101040.81;;;-1.50;62.12
70323;BME280;57735;56.264;43.898;2023-03-14T05:30:31;101051.72;;;-1.39;62.29
70323;BME280;57735;56.264;43.898;2023-03-14T05:33:03;101048.94;;;-1.34;61.91
70323;BME280;57735;56.264;43.898;2023-03-14T05:35:34;101053.06;;;-1.29;61.89
70323;BME280;57735;56.264;43.898;2023-03-14T05:38:04;101060.66;;;-1.23;61.74
70323;BME280;57735;56.264;43.898;2023-03-14T05:40:35;101064.34;;;-1.07;61.40
70323;BME280;57735;56.264;43.898;2023-03-14T05:43:06;101061.16;;;-0.93;60.87
70323;BME280;57735;56.264;43.898;2023-03-14T05:45:38;101049.97;;;-0.76;60.43
70323;BME280;57735;56.264;43.898;2023-03-14T05:48:08;101050.81;;;-0.55;60.50
70323;BME280;57735;56.264;43.898;2023-03-14T05:50:39;101047.47;;;-0.39;59.63
70323;BME280;57735;56.264;43.898;2023-03-14T05:53:10;101039.06;;;-0.26;58.76
70323;BME280;57735;56.264;43.898;2023-03-14T05:55:41;101028.81;;;-0.12;58.98
70323;BME280;57735;56.264;43.898;2023-03-14T05:58:11;101018.19;;;-0.09;57.93
70323;BME280;57735;56.264;43.898;2023-03-14T06:00:42;101018.91;;;-0.06;57.83
70323;BME280;57735;56.264;43.898;2023-03-14T06:03:12;101018.47;;;0.04;57.70
70323;BME280;57735;56.264;43.898;2023-03-14T06:05:43;101018.06;;;0.13;57.08
70323;BME280;57735;56.264;43.898;2023-03-14T06:08:13;101004.03;;;0.14;56.48
70323;BME280;57735;56.264;43.898;2023-03-14T06:10:44;101007.97;;;0.22;56.36
70323;BME280;57735;56.264;43.898;2023-03-14T06:13:14;101002.31;;;0.31;56.03
70323;BME280;57735;56.264;43.898;2023-03-14T06:15:45;100993.97;;;0.41;55.49
70323;BME280;57735;56.264;43.898;2023-03-14T06:18:16;100988.44;;;0.47;55.35
70323;BME280;57735;56.264;43.898;2023-03-14T06:20:46;100988.91;;;0.55;55.06
70323;BME280;57735;56.264;43.898;2023-03-14T06:23:17;100985.84;;;0.64;55.28
70323;BME280;57735;56.264;43.898;2023-03-14T06:25:47;100981.22;;;0.69;54.63
70323;BME280;57735;56.264;43.898;2023-03-14T06:28:18;100968.88;;;0.71;54.48
70323;BME280;57735;56.264;43.898;2023-03-14T06:30:48;100954.44;;;0.62;54.45
70323;BME280;57735;56.264;43.898;2023-03-14T06:33:19;100940.41;;;0.63;55.02
70323;BME280;57735;56.264;43.898;2023-03-14T06:35:49;100943.41;;;0.73;54.38
70323;BME280;57735;56.264;43.898;2023-03-14T06:38:20;100959.28;;;0.87;54.47
70323;BME280;57735;56.264;43.898;2023-03-14T06:40:50;100954.19;;;1.01;53.86
70323;BME280;57735;56.264;43.898;2023-03-14T06:43:21;100945.00;;;1.10;53.63
70323;BME280;57735;56.264;43.898;2023-03-14T06:45:51;100945.84;;;1.11;53.24
70323;BME280;57735;56.264;43.898;2023-03-14T06:48:22;100939.44;;;1.16;53.22
70323;BME280;57735;56.264;43.898;2023-03-14T06:50:53;100926.97;;;1.20;53.23
70323;BME280;57735;56.264;43.898;2023-03-14T06:53:23;100924.88;;;1.26;53.10
70323;BME280;57735;56.264;43.898;2023-03-14T06:55:54;100927.44;;;1.28;53.05
70323;BME280;57735;56.264;43.898;2023-03-14T06:58:24;100922.88;;;1.31;53.05
70323;BME280;57735;56.264;43.898;2023-03-14T07:00:55;100907.50;;;1.24;53.12
70323;BME280;57735;56.264;43.898;2023-03-14T07:03:27;100913.84;;;1.20;52.85
70323;BME280;57735;56.264;43.898;2023-03-14T07:05:57;100910.94;;;1.09;53.07
70323;BME280;57735;56.264;43.898;2023-03-14T07:08:28;100896.34;;;1.03;53.17
70323;BME280;57735;56.264;43.898;2023-03-14T07:10:59;100898.31;;;0.99;53.64
70323;BME280;57735;56.264;43.898;2023-03-14T07:13:29;100909.91;;;0.95;54.31
70323;BME280;57735;56.264;43.898;2023-03-14T07:16:00;100885.22;;;0.82;55.19
70323;BME280;57735;56.264;43.898;2023-03-14T07:18:30;100900.19;;;0.80;56.08
70323;BME280;57735;56.264;43.898;2023-03-14T07:21:01;100908.06;;;0.80;56.26
70323;BME280;57735;56.264;43.898;2023-03-14T07:23:31;100901.50;;;0.72;56.95
70323;BME280;57735;56.264;43.898;2023-03-14T07:26:02;100896.50;;;0.67;57.25
70323;BME280;57735;56.264;43.898;2023-03-14T07:28:33;100894.41;;;0.74;58.16
70323;BME280;57735;56.264;43.898;2023-03-14T07:31:03;100897.41;;;0.83;58.33
70323;BME280;57735;56.264;43.898;2023-03-14T07:33:34;100875.00;;;0.93;57.83
70323;BME280;57735;56.264;43.898;2023-03-14T07:36:04;100865.91;;;1.00;59.00
70323;BME280;57735;56.264;43.898;2023-03-14T07:38:35;100866.81;;;0.99;59.73
70323;BME280;57735;56.264;43.898;2023-03-14T07:41:09;100853.16;;;0.93;60.87
70323;BME280;57735;56.264;43.898;2023-03-14T07:43:39;100850.19;;;0.83;60.90
70323;BME280;57735;56.264;43.898;2023-03-14T07:46:10;100840.88;;;0.60;62.41
70323;BME280;57735;56.264;43.898;2023-03-14T07:48:40;100824.22;;;0.44;62.76
70323;BME280;57735;56.264;43.898;2023-03-14T07:51:11;100816.88;;;0.51;63.00
70323;BME280;57735;56.264;43.898;2023-03-14T07:53:42;100804.00;;;0.63;63.05
70323;BME280;57735;56.264;43.898;2023-03-14T07:56:14;100799.75;;;0.61;62.13
70323;BME280;57735;56.264;43.898;2023-03-14T07:58:44;100797.75;;;0.66;61.67
70323;BME280;57735;56.264;43.898;2023-03-14T08:01:15;100791.56;;;0.67;61.80
70323;BME280;57735;56.264;43.898;2023-03-14T08:03:45;100778.72;;;0.78;61.29
70323;BME280;57735;56.264;43.898;2023-03-14T08:06:16;100779.34;;;0.83;61.63
70323;BME280;57735;56.264;43.898;2023-03-14T08:08:46;100757.31;;;0.86;60.54
70323;BME280;57735;56.264;43.898;2023-03-14T08:11:17;100750.13;;;0.89;60.27
70323;BME280;57735;56.264;43.898;2023-03-14T08:13:47;100752.75;;;1.05;59.84
70323;BME280;57735;56.264;43.898;2023-03-14T08:16:20;100735.84;;;1.11;58.57
70323;BME280;57735;56.264;43.898;2023-03-14T08:18:50;100733.19;;;1.26;58.19
70323;BME280;57735;56.264;43.898;2023-03-14T08:21:21;100717.94;;;1.49;57.44
70323;BME280;57735;56.264;43.898;2023-03-14T08:23:51;100702.50;;;1.72;56.60
70323;BME280;57735;56.264;43.898;2023-03-14T08:26:22;100696.44;;;1.86;55.73
70323;BME280;57735;56.264;43.898;2023-03-14T08:28:53;100684.56;;;2.09;55.16
70323;BME280;57735;56.264;43.898;2023-03-14T08:31:26;100685.06;;;2.16;54.25
70323;BME280;57735;56.264;43.898;2023-03-14T08:33:59;100676.59;;;2.10;53.60
70323;BME280;57735;56.264;43.898;2023-03-14T08:36:30;100690.94;;;2.19;53.93
70323;BME280;57735;56.264;43.898;2023-03-14T08:39:01;100684.31;;;2.28;54.02
70323;BME280;57735;56.264;43.898;2023-03-14T08:41:34;100685.50;;;2.22;53.13
70323;BME280;57735;56.264;43.898;2023-03-14T08:44:12;100688.88;;;2.10;53.68
70323;BME280;57735;56.264;43.898;2023-03-14T08:46:43;100673.84;;;1.98;53.16
70323;BME280;57735;56.264;43.898;2023-03-14T08:49:13;100674.97;;;1.94;52.99
70323;BME280;57735;56.264;43.898;2023-03-14T08:51:45;100675.47;;;2.00;53.09
70323;BME280;57735;56.264;43.898;2023-03-14T08:54:15;100661.25;;;2.03;52.76
70323;BME280;57735;56.264;43.898;2023-03-14T08:56:46;100658.63;;;2.03;52.47
70323;BME280;57735;56.264;43.898;2023-03-14T08:59:17;100654.22;;;2.03;52.51
70323;BME280;57735;56.264;43.898;2023-03-14T09:01:48;100651.41;;;2.06;52.04
70323;BME280;57735;56.264;43.898;2023-03-14T09:04:18;100637.41;;;2.06;52.48
70323;BME280;57735;56.264;43.898;2023-03-14T09:06:49;100649.63;;;2.07;52.53
70323;BME280;57735;56.264;43.898;2023-03-14T09:09:19;100657.34;;;2.10;53.29
70323;BME280;57735;56.264;43.898;2023-03-14T09:11:50;100650.38;;;2.09;52.88
70323;BME280;57735;56.264;43.898;2023-03-14T09:14:20;100643.81;;;2.16;52.72
70323;BME280;57735;56.264;43.898;2023-03-14T09:16:51;100644.66;;;2.31;53.02
70323;BME280;57735;56.264;43.898;2023-03-14T09:19:22;100652.44;;;2.47;52.08
70323;BME280;57735;56.264;43.898;2023-03-14T09:21:52;100649.97;;;2.58;51.99
70323;BME280;57735;56.264;43.898;2023-03-14T09:24:23;100644.25;;;2.65;51.59
70323;BME280;57735;56.264;43.898;2023-03-14T09:26:54;100638.13;;;2.79;51.95
70323;BME280;57735;56.264;43.898;2023-03-14T09:29:25;100642.41;;;2.94;51.45
70323;BME280;57735;56.264;43.898;2023-03-14T09:31:55;100639.06;;;3.05;50.89
70323;BME280;57735;56.264;43.898;2023-03-14T09:34:28;100648.25;;;3.12;51.08
70323;BME280;57735;56.264;43.898;2023-03-14T09:36:58;100642.28;;;3.23;50.70
70323;BME280;57735;56.264;43.898;2023-03-14T09:39:30;100647.91;;;3.31;50.26
70323;BME280;57735;56.264;43.898;2023-03-14T09:42:01;100647.19;;;3.41;49.87
70323;BME280;57735;56.264;43.898;2023-03-14T09:44:34;100650.59;;;3.56;49.63
70323;BME280;57735;56.264;43.898;2023-03-14T09:47:07;100647.25;;;3.67;49.48
70323;BME280;57735;56.264;43.898;2023-03-14T09:49:41;100641.88;;;3.68;49.14
70323;BME280;57735;56.264;43.898;2023-03-14T09:52:15;100657.81;;;3.79;49.06
70323;BME280;57735;56.264;43.898;2023-03-14T09:54:49;100641.25;;;3.90;48.94
70323;BME280;57735;56.264;43.898;2023-03-14T09:57:21;100635.38;;;3.99;48.87
70323;BME280;57735;56.264;43.898;2023-03-14T09:59:56;100629.13;;;4.00;48.17
70323;BME280;57735;56.264;43.898;2023-03-14T10:02:32;100632.50;;;4.02;47.99
70323;BME280;57735;56.264;43.898;2023-03-14T10:05:14;100617.31;;;3.93;48.32
70323;BME280;57735;56.264;43.898;2023-03-14T10:07:45;100611.19;;;3.93;48.62
70323;BME280;57735;56.264;43.898;2023-03-14T10:10:18;100605.38;;;3.88;48.66
70323;BME280;57735;56.264;43.898;2023-03-14T10:12:57;100603.81;;;3.85;48.91
70323;BME280;57735;56.264;43.898;2023-03-14T10:15:31;100593.38;;;3.83;49.38
70323;BME280;57735;56.264;43.898;2023-03-14T10:18:03;100592.84;;;3.78;49.69
70323;BME280;57735;56.264;43.898;2023-03-14T10:20:44;100601.28;;;3.83;49.48
70323;BME280;57735;56.264;43.898;2023-03-14T10:25:48;100598.66;;;3.83;49.80
70323;BME280;57735;56.264;43.898;2023-03-14T10:31:27;100591.34;;;3.74;50.34
70323;BME280;57735;56.264;43.898;2023-03-14T10:34:03;100579.88;;;3.75;50.13
70323;BME280;57735;56.264;43.898;2023-03-14T10:36:34;100602.66;;;3.76;49.76
70323;BME280;57735;56.264;43.898;2023-03-14T10:41:53;100580.06;;;3.72;50.13
70323;BME280;57735;56.264;43.898;2023-03-14T10:44:24;100579.22;;;3.72;50.53
70323;BME280;57735;56.264;43.898;2023-03-14T10:46:56;100563.44;;;3.84;50.08
70323;BME280;57735;56.264;43.898;2023-03-14T10:49:35;100551.91;;;3.98;50.34
70323;BME280;57735;56.264;43.898;2023-03-14T10:54:39;100567.78;;;4.22;49.88
70323;BME280;57735;56.264;43.898;2023-03-14T10:57:12;100541.88;;;4.40;49.30
70323;BME280;57735;56.264;43.898;2023-03-14T10:59:42;100590.91;;;4.31;48.89
70323;BME280;57735;56.264;43.898;2023-03-14T11:05:28;100573.91;;;4.22;49.32
70323;BME280;57735;56.264;43.898;2023-03-14T11:08:07;100559.25;;;4.31;49.36
70323;BME280;57735;56.264;43.898;2023-03-14T11:10:40;100556.06;;;4.26;50.15
70323;BME280;57735;56.264;43.898;2023-03-14T11:13:24;100560.81;;;4.21;50.09
70323;BME280;57735;56.264;43.898;2023-03-14T11:21:29;100546.50;;;4.12;50.62
70323;BME280;57735;56.264;43.898;2023-03-14T11:24:10;100547.78;;;4.07;50.65
70323;BME280;57735;56.264;43.898;2023-03-14T11:26:55;100540.72;;;4.07;50.06
70323;BME280;57735;56.264;43.898;2023-03-14T11:29:35;100525.31;;;4.14;50.51
70323;BME280;57735;56.264;43.898;2023-03-14T11:32:20;100521.56;;;4.29;52.14
70323;BME280;57735;56.264;43.898;2023-03-14T11:34:54;100516.41;;;4.75;50.01
70323;BME280;57735;56.264;43.898;2023-03-14T11:37:26;100519.38;;;4.71;49.13
70323;BME280;57735;56.264;43.898;2023-03-14T11:40:01;100511.63;;;4.56;49.46
70323;BME280;57735;56.264;43.898;2023-03-14T11:42:36;100503.38;;;4.37;50.17
70323;BME280;57735;56.264;43.898;2023-03-14T11:45:15;100501.63;;;4.25;50.51
70323;BME280;57735;56.264;43.898;2023-03-14T11:47:49;100505.72;;;4.29;50.88
70323;BME280;57735;56.264;43.898;2023-03-14T11:50:23;100512.59;;;4.32;50.67
70323;BME280;57735;56.264;43.898;2023-03-14T11:52:56;100521.16;;;4.22;50.78
70323;BME280;57735;56.264;43.898;2023-03-14T11:55:30;100499.66;;;4.16;50.60
70323;BME280;57735;56.264;43.898;2023-03-14T11:58:16;100504.31;;;4.12;50.72
70323;BME280;57735;56.264;43.898;2023-03-14T12:00:48;100508.31;;;4.18;50.75
70323;BME280;57735;56.264;43.898;2023-03-14T12:03:25;100494.44;;;4.27;50.42
70323;BME280;57735;56.264;43.898;2023-03-14T12:06:13;100487.03;;;4.32;50.69
70323;BME280;57735;56.264;43.898;2023-03-14T12:11:31;100469.16;;;4.36;50.63
70323;BME280;57735;56.264;43.898;2023-03-14T12:14:03;100475.75;;;4.54;49.79
70323;BME280;57735;56.264;43.898;2023-03-14T12:16:47;100491.19;;;4.47;50.23
70323;BME280;57735;56.264;43.898;2023-03-14T12:24:23;100489.53;;;4.46;49.88
70323;BME280;57735;56.264;43.898;2023-03-14T12:26:56;100483.72;;;4.41;50.59
70323;BME280;57735;56.264;43.898;2023-03-14T12:29:27;100483.19;;;4.36;50.38
70323;BME280;57735;56.264;43.898;2023-03-14T12:34:32;100468.44;;;4.57;50.08
70323;BME280;57735;56.264;43.898;2023-03-14T12:45:27;100429.88;;;4.68;50.00
70323;BME280;57735;56.264;43.898;2023-03-14T12:50:41;100444.28;;;4.75;49.61
70323;BME280;57735;56.264;43.898;2023-03-14T12:53:55;100434.88;;;4.71;49.42
70323;BME280;57735;56.264;43.898;2023-03-14T13:01:17;100419.66;;;4.74;49.60
70323;BME280;57735;56.264;43.898;2023-03-14T13:03:55;100427.69;;;4.73;49.50
70323;BME280;57735;56.264;43.898;2023-03-14T13:06:47;100427.09;;;4.69;49.50
70323;BME280;57735;56.264;43.898;2023-03-14T13:12:12;100421.66;;;4.60;49.91
70323;BME280;57735;56.264;43.898;2023-03-14T13:14:45;100419.13;;;4.58;50.33
70323;BME280;57735;56.264;43.898;2023-03-14T13:17:22;100395.13;;;4.50;50.23
70323;BME280;57735;56.264;43.898;2023-03-14T13:19:57;100399.78;;;4.46;50.51
70323;BME280;57735;56.264;43.898;2023-03-14T13:22:31;100401.25;;;4.50;50.80
70323;BME280;57735;56.264;43.898;2023-03-14T13:25:04;100401.25;;;4.50;50.51
70323;BME280;57735;56.264;43.898;2023-03-14T13:27:35;100417.78;;;4.52;50.23
70323;BME280;57735;56.264;43.898;2023-03-14T13:30:16;100406.25;;;4.53;50.96
70323;BME280;57735;56.264;43.898;2023-03-14T13:32:48;100417.94;;;4.62;50.37
70323;BME280;57735;56.264;43.898;2023-03-14T13:35:21;100423.13;;;4.64;50.10
70323;BME280;57735;56.264;43.898;2023-03-14T13:37:59;100402.13;;;4.62;50.39
70323;BME280;57735;56.264;43.898;2023-03-14T13:40:33;100409.41;;;4.59;50.31
70323;BME280;57735;56.264;43.898;2023-03-14T13:43:10;100433.16;;;4.59;50.18
70323;BME280;57735;56.264;43.898;2023-03-14T13:48:16;100427.53;;;4.52;50.58
70323;BME280;57735;56.264;43.898;2023-03-14T13:50:51;100432.28;;;4.47;50.93
70323;BME280;57735;56.264;43.898;2023-03-14T13:53:22;100432.50;;;4.44;50.52
70323;BME280;57735;56.264;43.898;2023-03-14T13:55:53;100433.69;;;4.40;51.01
70323;BME280;57735;56.264;43.898;2023-03-14T13:58:27;100456.81;;;4.36;51.07
70323;BME280;57735;56.264;43.898;2023-03-14T14:00:59;100456.81;;;4.36;51.06
70323;BME280;57735;56.264;43.898;2023-03-14T14:03:34;100447.09;;;4.37;51.05